DENLF EGHQ-EGHH
Flight info
| Callsign | DENLF |
|---|---|
| Flight time | 1h 24m |
| Altitude | 3500 |
| Route | EGLA EG33 |
| Aircraft | PA18/L-S/C |
Departure
| Time | 2026-05-05 18:01 |
|---|---|
| Airport | Cornwall Airport Newquay (EGHQ) |
Arrival
| Time | 2026-05-05 19:26 |
|---|---|
| Airport | Bournemouth Airport (EGHH) |
| Time | Latitude | Longitude | Altitude | Speed | Heading |
|---|---|---|---|---|---|
| 2026-05-05 17:30 | 50.44432 | -4.99745 | 342 ft | 0 kts | 156° |
| 2026-05-05 17:54 | 50.44425 | -4.99743 | 342 ft | 3 kts | 192° |
| 2026-05-05 17:55 | 50.44391 | -4.99794 | 341 ft | 8 kts | 181° |
| 2026-05-05 17:55 | 50.44349 | -4.99716 | 344 ft | 11 kts | 121° |
| 2026-05-05 17:55 | 50.44308 | -4.99608 | 349 ft | 10 kts | 121° |
| 2026-05-05 17:55 | 50.44269 | -4.99513 | 354 ft | 9 kts | 136° |
| 2026-05-05 17:56 | 50.44206 | -4.99492 | 354 ft | 10 kts | 178° |
| 2026-05-05 17:56 | 50.44181 | -4.99492 | 354 ft | 0 kts | 185° |
| 2026-05-05 18:00 | 50.44165 | -4.99494 | 354 ft | 6 kts | 184° |
| 2026-05-05 18:00 | 50.44093 | -4.99506 | 354 ft | 12 kts | 217° |
| 2026-05-05 18:00 | 50.44126 | -4.99665 | 349 ft | 35 kts | 301° |
| 2026-05-05 18:01 | 50.44324 | -5.00188 | 619 ft | 59 kts | 303° |
| 2026-05-05 18:01 | 50.44520 | -5.00734 | 1073 ft | 58 kts | 298° |
| 2026-05-05 18:01 | 50.44896 | -5.00826 | 1377 ft | 73 kts | 40° |
| 2026-05-05 18:01 | 50.45168 | -5.00086 | 1595 ft | 81 kts | 63° |
| 2026-05-05 18:02 | 50.45397 | -4.99256 | 1682 ft | 89 kts | 68° |
| 2026-05-05 18:02 | 50.45650 | -4.98314 | 1716 ft | 98 kts | 64° |
| 2026-05-05 18:02 | 50.45795 | -4.97279 | 1805 ft | 99 kts | 89° |
| 2026-05-05 18:02 | 50.45707 | -4.96201 | 1854 ft | 99 kts | 98° |
| 2026-05-05 18:03 | 50.45581 | -4.95148 | 1864 ft | 99 kts | 95° |
| 2026-05-05 18:03 | 50.45468 | -4.94113 | 1915 ft | 96 kts | 106° |
| 2026-05-05 18:03 | 50.45209 | -4.93103 | 1900 ft | 97 kts | 98° |
| 2026-05-05 18:03 | 50.45243 | -4.92071 | 1944 ft | 93 kts | 80° |
| 2026-05-05 18:04 | 50.45324 | -4.91043 | 1926 ft | 98 kts | 81° |
| 2026-05-05 18:04 | 50.45431 | -4.89970 | 1924 ft | 98 kts | 79° |
| 2026-05-05 18:04 | 50.45541 | -4.88877 | 1875 ft | 100 kts | 79° |
| 2026-05-05 18:04 | 50.45607 | -4.87779 | 1858 ft | 100 kts | 85° |
| 2026-05-05 18:05 | 50.45669 | -4.86676 | 1816 ft | 101 kts | 82° |
| 2026-05-05 18:05 | 50.45752 | -4.85567 | 1800 ft | 100 kts | 81° |
| 2026-05-05 18:05 | 50.45821 | -4.84475 | 1765 ft | 101 kts | 83° |
| 2026-05-05 18:05 | 50.45925 | -4.83359 | 1739 ft | 100 kts | 78° |
| 2026-05-05 18:06 | 50.46004 | -4.82270 | 1704 ft | 102 kts | 80° |
| 2026-05-05 18:06 | 50.46078 | -4.81539 | 1702 ft | 101 kts | 78° |
| 2026-05-05 18:06 | 50.46257 | -4.80115 | 1725 ft | 99 kts | 75° |
| 2026-05-05 18:06 | 50.46404 | -4.79030 | 1716 ft | 101 kts | 76° |
| 2026-05-05 18:07 | 50.46455 | -4.77940 | 1698 ft | 103 kts | 92° |
| 2026-05-05 18:07 | 50.46469 | -4.76813 | 1664 ft | 102 kts | 70° |
| 2026-05-05 18:07 | 50.46755 | -4.75842 | 1737 ft | 95 kts | 60° |
| 2026-05-05 18:07 | 50.47093 | -4.74968 | 1760 ft | 96 kts | 53° |
| 2026-05-05 18:08 | 50.47445 | -4.74169 | 1962 ft | 86 kts | 50° |
| 2026-05-05 18:08 | 50.47792 | -4.73356 | 2070 ft | 91 kts | 54° |
| 2026-05-05 18:08 | 50.48136 | -4.72502 | 2183 ft | 95 kts | 53° |
| 2026-05-05 18:08 | 50.48490 | -4.71610 | 2289 ft | 96 kts | 53° |
| 2026-05-05 18:09 | 50.48831 | -4.70667 | 2343 ft | 102 kts | 63° |
| 2026-05-05 18:09 | 50.49038 | -4.69555 | 2377 ft | 103 kts | 72° |
| 2026-05-05 18:09 | 50.49265 | -4.68487 | 2393 ft | 101 kts | 66° |
| 2026-05-05 18:09 | 50.49550 | -4.67456 | 2378 ft | 98 kts | 60° |
| 2026-05-05 18:10 | 50.49821 | -4.66550 | 2316 ft | 85 kts | 59° |
| 2026-05-05 18:10 | 50.50161 | -4.65796 | 2054 ft | 80 kts | 46° |
| 2026-05-05 18:10 | 50.50614 | -4.65471 | 1820 ft | 73 kts | 343° |
| 2026-05-05 18:10 | 50.50812 | -4.66111 | 1652 ft | 69 kts | 256° |
| 2026-05-05 18:11 | 50.50465 | -4.66626 | 1500 ft | 67 kts | 216° |
| 2026-05-05 18:11 | 50.50081 | -4.67039 | 1366 ft | 65 kts | 215° |
| 2026-05-05 18:11 | 50.49692 | -4.67426 | 1265 ft | 65 kts | 211° |
| 2026-05-05 18:11 | 50.49292 | -4.67310 | 1139 ft | 64 kts | 134° |
| 2026-05-05 18:12 | 50.48975 | -4.66828 | 1017 ft | 66 kts | 136° |
| 2026-05-05 18:12 | 50.48811 | -4.66285 | 972 ft | 57 kts | 53° |
| 2026-05-05 18:12 | 50.49060 | -4.65830 | 900 ft | 55 kts | 34° |
| 2026-05-05 18:12 | 50.49403 | -4.65714 | 787 ft | 52 kts | 352° |
| 2026-05-05 18:13 | 50.49680 | -4.66056 | 650 ft | 50 kts | 314° |
| 2026-05-05 18:13 | 50.49872 | -4.66416 | 630 ft | 35 kts | 311° |
| 2026-05-05 18:13 | 50.50095 | -4.66834 | 881 ft | 60 kts | 307° |
| 2026-05-05 18:13 | 50.50354 | -4.67387 | 1266 ft | 69 kts | 317° |
| 2026-05-05 18:14 | 50.50796 | -4.67238 | 1645 ft | 79 kts | 49° |
| 2026-05-05 18:14 | 50.50808 | -4.66387 | 2033 ft | 86 kts | 112° |
| 2026-05-05 18:14 | 50.50444 | -4.65679 | 2437 ft | 85 kts | 133° |
| 2026-05-05 18:14 | 50.50318 | -4.64790 | 2697 ft | 87 kts | 81° |
| 2026-05-05 18:15 | 50.50335 | -4.63787 | 2777 ft | 96 kts | 87° |
| 2026-05-05 18:15 | 50.50346 | -4.62736 | 2855 ft | 97 kts | 88° |
| 2026-05-05 18:15 | 50.50359 | -4.61641 | 2872 ft | 102 kts | 87° |
| 2026-05-05 18:15 | 50.50404 | -4.60530 | 2922 ft | 101 kts | 82° |
| 2026-05-05 18:16 | 50.50505 | -4.59431 | 2957 ft | 102 kts | 80° |
| 2026-05-05 18:16 | 50.50573 | -4.58314 | 2962 ft | 105 kts | 84° |
| 2026-05-05 18:16 | 50.50594 | -4.57181 | 3014 ft | 104 kts | 90° |
| 2026-05-05 18:16 | 50.50551 | -4.56033 | 3037 ft | 104 kts | 95° |
| 2026-05-05 18:17 | 50.50525 | -4.54872 | 3014 ft | 109 kts | 89° |
| 2026-05-05 18:17 | 50.50513 | -4.53685 | 3039 ft | 105 kts | 84° |
| 2026-05-05 18:17 | 50.50547 | -4.52545 | 3080 ft | 104 kts | 86° |
| 2026-05-05 18:17 | 50.50568 | -4.51393 | 3082 ft | 105 kts | 83° |
| 2026-05-05 18:18 | 50.50650 | -4.50243 | 3098 ft | 105 kts | 81° |
| 2026-05-05 18:18 | 50.50774 | -4.49098 | 3113 ft | 104 kts | 76° |
| 2026-05-05 18:18 | 50.50898 | -4.47963 | 3130 ft | 104 kts | 76° |
| 2026-05-05 18:18 | 50.51051 | -4.46817 | 3126 ft | 107 kts | 74° |
| 2026-05-05 18:19 | 50.51231 | -4.45679 | 3161 ft | 105 kts | 72° |
| 2026-05-05 18:19 | 50.51388 | -4.44545 | 3175 ft | 107 kts | 75° |
| 2026-05-05 18:19 | 50.51548 | -4.43385 | 3208 ft | 107 kts | 74° |
| 2026-05-05 18:19 | 50.51736 | -4.42247 | 3242 ft | 106 kts | 71° |
| 2026-05-05 18:20 | 50.51855 | -4.41129 | 3269 ft | 108 kts | 79° |
| 2026-05-05 18:20 | 50.51936 | -4.39952 | 3297 ft | 107 kts | 79° |
| 2026-05-05 18:20 | 50.52035 | -4.38789 | 3315 ft | 108 kts | 75° |
| 2026-05-05 18:20 | 50.52191 | -4.37645 | 3351 ft | 107 kts | 75° |
| 2026-05-05 18:21 | 50.52350 | -4.36497 | 3371 ft | 107 kts | 71° |
| 2026-05-05 18:21 | 50.52519 | -4.35360 | 3408 ft | 107 kts | 75° |
| 2026-05-05 18:21 | 50.52651 | -4.34174 | 3410 ft | 107 kts | 76° |
| 2026-05-05 18:21 | 50.52797 | -4.33010 | 3433 ft | 107 kts | 73° |
| 2026-05-05 18:22 | 50.52999 | -4.31870 | 3453 ft | 106 kts | 70° |
| 2026-05-05 18:22 | 50.53240 | -4.30778 | 3489 ft | 106 kts | 67° |
| 2026-05-05 18:22 | 50.53464 | -4.29642 | 3499 ft | 107 kts | 71° |
| 2026-05-05 18:22 | 50.53666 | -4.28505 | 3530 ft | 106 kts | 70° |
| 2026-05-05 18:23 | 50.53892 | -4.27391 | 3552 ft | 106 kts | 70° |
| 2026-05-05 18:23 | 50.54069 | -4.26267 | 3589 ft | 105 kts | 72° |
| 2026-05-05 18:23 | 50.54265 | -4.25132 | 3588 ft | 108 kts | 74° |
| 2026-05-05 18:23 | 50.54407 | -4.23970 | 3610 ft | 107 kts | 76° |
| 2026-05-05 18:24 | 50.54588 | -4.22822 | 3619 ft | 109 kts | 70° |
| 2026-05-05 18:24 | 50.54780 | -4.21677 | 3645 ft | 108 kts | 74° |
| 2026-05-05 18:24 | 50.54938 | -4.20527 | 3679 ft | 106 kts | 73° |
| 2026-05-05 18:24 | 50.55066 | -4.19377 | 3710 ft | 108 kts | 78° |
| 2026-05-05 18:25 | 50.55141 | -4.18194 | 3722 ft | 109 kts | 84° |
| 2026-05-05 18:25 | 50.55155 | -4.17398 | 3744 ft | 108 kts | 86° |
| 2026-05-05 18:25 | 50.55116 | -4.15803 | 3748 ft | 109 kts | 88° |
| 2026-05-05 18:25 | 50.55130 | -4.14604 | 3774 ft | 108 kts | 83° |
| 2026-05-05 18:26 | 50.55171 | -4.13406 | 3775 ft | 109 kts | 83° |
| 2026-05-05 18:26 | 50.55234 | -4.12220 | 3801 ft | 108 kts | 82° |
| 2026-05-05 18:26 | 50.55275 | -4.11016 | 3804 ft | 108 kts | 83° |
| 2026-05-05 18:26 | 50.55347 | -4.09833 | 3823 ft | 108 kts | 80° |
| 2026-05-05 18:27 | 50.55415 | -4.08643 | 3830 ft | 109 kts | 86° |
| 2026-05-05 18:27 | 50.55364 | -4.07426 | 3832 ft | 109 kts | 88° |
| 2026-05-05 18:27 | 50.55381 | -4.06238 | 3833 ft | 110 kts | 82° |
| 2026-05-05 18:27 | 50.55457 | -4.05031 | 3845 ft | 108 kts | 79° |
| 2026-05-05 18:28 | 50.55640 | -4.02669 | 3860 ft | 109 kts | 79° |
| 2026-05-05 18:28 | 50.55753 | -4.01473 | 3851 ft | 110 kts | 76° |
| 2026-05-05 18:28 | 50.55867 | -4.00296 | 3860 ft | 111 kts | 81° |
| 2026-05-05 18:29 | 50.55950 | -3.99073 | 3819 ft | 113 kts | 81° |
| 2026-05-05 18:29 | 50.55997 | -3.97845 | 3817 ft | 112 kts | 82° |
| 2026-05-05 18:29 | 50.56068 | -3.96639 | 3816 ft | 111 kts | 81° |
| 2026-05-05 18:29 | 50.56129 | -3.95420 | 3791 ft | 112 kts | 83° |
| 2026-05-05 18:30 | 50.56253 | -3.94205 | 3795 ft | 110 kts | 72° |
| 2026-05-05 18:30 | 50.56456 | -3.93053 | 3794 ft | 110 kts | 71° |
| 2026-05-05 18:30 | 50.56635 | -3.91876 | 3789 ft | 111 kts | 76° |
| 2026-05-05 18:30 | 50.56642 | -3.90621 | 3720 ft | 113 kts | 85° |
| 2026-05-05 18:31 | 50.56688 | -3.89428 | 3770 ft | 109 kts | 82° |
| 2026-05-05 18:31 | 50.56747 | -3.88200 | 3686 ft | 109 kts | 83° |
| 2026-05-05 18:31 | 50.56799 | -3.87009 | 3595 ft | 107 kts | 83° |
| 2026-05-05 18:31 | 50.56868 | -3.85840 | 3471 ft | 108 kts | 81° |
| 2026-05-05 18:32 | 50.56921 | -3.84652 | 3355 ft | 107 kts | 83° |
| 2026-05-05 18:32 | 50.56984 | -3.83463 | 3241 ft | 107 kts | 82° |
| 2026-05-05 18:32 | 50.57036 | -3.82280 | 3105 ft | 108 kts | 82° |
| 2026-05-05 18:32 | 50.57138 | -3.81114 | 2990 ft | 107 kts | 77° |
| 2026-05-05 18:33 | 50.57244 | -3.79968 | 2899 ft | 105 kts | 79° |
| 2026-05-05 18:33 | 50.57363 | -3.78845 | 2781 ft | 106 kts | 77° |
| 2026-05-05 18:33 | 50.57471 | -3.77710 | 2696 ft | 104 kts | 78° |
| 2026-05-05 18:33 | 50.57578 | -3.76595 | 2601 ft | 104 kts | 77° |
| 2026-05-05 18:34 | 50.57700 | -3.75479 | 2499 ft | 103 kts | 76° |
| 2026-05-05 18:34 | 50.57823 | -3.74407 | 2475 ft | 97 kts | 76° |
| 2026-05-05 18:34 | 50.57920 | -3.73343 | 2366 ft | 100 kts | 77° |
| 2026-05-05 18:34 | 50.58058 | -3.72278 | 2354 ft | 93 kts | 73° |
| 2026-05-05 18:35 | 50.58201 | -3.71273 | 2331 ft | 94 kts | 76° |
| 2026-05-05 18:35 | 50.58281 | -3.70259 | 2357 ft | 90 kts | 85° |
| 2026-05-05 18:35 | 50.58257 | -3.69245 | 2325 ft | 92 kts | 87° |
| 2026-05-05 18:35 | 50.58271 | -3.68225 | 2340 ft | 94 kts | 81° |
| 2026-05-05 18:36 | 50.58350 | -3.67197 | 2391 ft | 94 kts | 79° |
| 2026-05-05 18:36 | 50.58427 | -3.66166 | 2461 ft | 94 kts | 77° |
| 2026-05-05 18:36 | 50.58575 | -3.65146 | 2556 ft | 95 kts | 71° |
| 2026-05-05 18:36 | 50.58765 | -3.64127 | 2646 ft | 98 kts | 67° |
| 2026-05-05 18:37 | 50.58998 | -3.63121 | 2756 ft | 99 kts | 65° |
| 2026-05-05 18:37 | 50.59191 | -3.62072 | 2836 ft | 101 kts | 75° |
| 2026-05-05 18:37 | 50.59302 | -3.60988 | 2943 ft | 101 kts | 82° |
| 2026-05-05 18:37 | 50.59350 | -3.59873 | 3027 ft | 102 kts | 81° |
| 2026-05-05 18:38 | 50.59452 | -3.58791 | 3141 ft | 100 kts | 76° |
| 2026-05-05 18:38 | 50.59565 | -3.57711 | 3233 ft | 101 kts | 75° |
| 2026-05-05 18:38 | 50.59684 | -3.56614 | 3315 ft | 102 kts | 74° |
| 2026-05-05 18:38 | 50.59831 | -3.55520 | 3377 ft | 104 kts | 73° |
| 2026-05-05 18:39 | 50.59972 | -3.54376 | 3433 ft | 105 kts | 74° |
| 2026-05-05 18:39 | 50.60135 | -3.53265 | 3531 ft | 102 kts | 70° |
| 2026-05-05 18:39 | 50.60310 | -3.52163 | 3577 ft | 104 kts | 72° |
| 2026-05-05 18:39 | 50.60480 | -3.51051 | 3660 ft | 102 kts | 73° |
| 2026-05-05 18:40 | 50.60635 | -3.49922 | 3691 ft | 106 kts | 72° |
| 2026-05-05 18:40 | 50.60811 | -3.48806 | 3783 ft | 102 kts | 71° |
| 2026-05-05 18:40 | 50.60980 | -3.47667 | 3711 ft | 111 kts | 74° |
| 2026-05-05 18:40 | 50.61131 | -3.46431 | 3595 ft | 115 kts | 77° |
| 2026-05-05 18:41 | 50.61231 | -3.45206 | 3578 ft | 112 kts | 80° |
| 2026-05-05 18:41 | 50.61352 | -3.43962 | 3497 ft | 114 kts | 75° |
| 2026-05-05 18:41 | 50.61583 | -3.42791 | 3470 ft | 111 kts | 67° |
| 2026-05-05 18:41 | 50.61840 | -3.41638 | 3409 ft | 113 kts | 67° |
| 2026-05-05 18:42 | 50.62054 | -3.40464 | 3398 ft | 111 kts | 69° |
| 2026-05-05 18:42 | 50.62305 | -3.39301 | 3348 ft | 112 kts | 65° |
| 2026-05-05 18:42 | 50.62606 | -3.38179 | 3318 ft | 111 kts | 62° |
| 2026-05-05 18:42 | 50.62967 | -3.37103 | 3259 ft | 112 kts | 57° |
| 2026-05-05 18:43 | 50.63314 | -3.36018 | 3248 ft | 110 kts | 62° |
| 2026-05-05 18:43 | 50.63531 | -3.34835 | 3179 ft | 112 kts | 73° |
| 2026-05-05 18:43 | 50.63731 | -3.33660 | 3166 ft | 110 kts | 68° |
| 2026-05-05 18:43 | 50.64032 | -3.32523 | 3106 ft | 111 kts | 63° |
| 2026-05-05 18:44 | 50.64330 | -3.31399 | 3093 ft | 109 kts | 63° |
| 2026-05-05 18:44 | 50.64667 | -3.30300 | 3043 ft | 110 kts | 60° |
| 2026-05-05 18:44 | 50.64992 | -3.29213 | 3024 ft | 109 kts | 63° |
| 2026-05-05 18:44 | 50.65266 | -3.28063 | 2952 ft | 112 kts | 66° |
| 2026-05-05 18:45 | 50.65575 | -3.26955 | 2934 ft | 109 kts | 62° |
| 2026-05-05 18:45 | 50.65907 | -3.25854 | 2883 ft | 111 kts | 61° |
| 2026-05-05 18:45 | 50.66231 | -3.24761 | 2855 ft | 110 kts | 63° |
| 2026-05-05 18:45 | 50.66529 | -3.23645 | 2815 ft | 111 kts | 63° |
| 2026-05-05 18:46 | 50.66845 | -3.22536 | 2753 ft | 113 kts | 60° |
| 2026-05-05 18:46 | 50.67218 | -3.21484 | 2745 ft | 108 kts | 57° |
| 2026-05-05 18:46 | 50.67603 | -3.20435 | 2644 ft | 111 kts | 54° |
| 2026-05-05 18:46 | 50.67970 | -3.19454 | 2653 ft | 101 kts | 60° |
| 2026-05-05 18:47 | 50.68251 | -3.18431 | 2605 ft | 103 kts | 62° |
| 2026-05-05 18:47 | 50.68572 | -3.17434 | 2550 ft | 101 kts | 55° |
| 2026-05-05 18:47 | 50.69022 | -3.16568 | 2515 ft | 97 kts | 43° |
| 2026-05-05 18:47 | 50.69524 | -3.15917 | 2535 ft | 87 kts | 30° |
| 2026-05-05 18:48 | 50.70008 | -3.15671 | 2375 ft | 75 kts | 2° |
| 2026-05-05 18:48 | 50.70538 | -3.15634 | 2123 ft | 74 kts | 2° |
| 2026-05-05 18:48 | 50.70978 | -3.15312 | 1880 ft | 75 kts | 62° |
| 2026-05-05 18:48 | 50.70752 | -3.14703 | 1685 ft | 74 kts | 173° |
| 2026-05-05 18:49 | 50.70268 | -3.14827 | 1532 ft | 69 kts | 187° |
| 2026-05-05 18:49 | 50.69789 | -3.14953 | 1413 ft | 68 kts | 190° |
| 2026-05-05 18:49 | 50.69318 | -3.15044 | 1297 ft | 68 kts | 185° |
| 2026-05-05 18:49 | 50.68888 | -3.15259 | 1247 ft | 64 kts | 236° |
| 2026-05-05 18:50 | 50.68837 | -3.15904 | 1192 ft | 59 kts | 269° |
| 2026-05-05 18:50 | 50.68835 | -3.16565 | 1142 ft | 61 kts | 270° |
| 2026-05-05 18:50 | 50.68842 | -3.17257 | 1112 ft | 59 kts | 285° |
| 2026-05-05 18:50 | 50.69204 | -3.17430 | 1009 ft | 57 kts | 5° |
| 2026-05-05 18:51 | 50.69595 | -3.17331 | 914 ft | 57 kts | 9° |
| 2026-05-05 18:51 | 50.69915 | -3.17031 | 784 ft | 60 kts | 88° |
| 2026-05-05 18:51 | 50.69853 | -3.16360 | 597 ft | 63 kts | 91° |
| 2026-05-05 18:51 | 50.69800 | -3.15719 | 505 ft | 49 kts | 96° |
| 2026-05-05 18:52 | 50.69745 | -3.15162 | 593 ft | 66 kts | 101° |
| 2026-05-05 18:52 | 50.69614 | -3.14402 | 983 ft | 78 kts | 102° |
| 2026-05-05 18:52 | 50.69520 | -3.13573 | 1401 ft | 79 kts | 91° |
| 2026-05-05 18:52 | 50.69522 | -3.12692 | 1708 ft | 83 kts | 87° |
| 2026-05-05 18:53 | 50.69588 | -3.11797 | 2052 ft | 80 kts | 77° |
| 2026-05-05 18:53 | 50.69696 | -3.10840 | 2235 ft | 95 kts | 74° |
| 2026-05-05 18:53 | 50.69872 | -3.09765 | 2280 ft | 102 kts | 71° |
| 2026-05-05 18:53 | 50.70087 | -3.08677 | 2345 ft | 103 kts | 68° |
| 2026-05-05 18:54 | 50.70307 | -3.07581 | 2425 ft | 103 kts | 74° |
| 2026-05-05 18:54 | 50.70430 | -3.06446 | 2465 ft | 106 kts | 79° |
| 2026-05-05 18:54 | 50.70513 | -3.05291 | 2534 ft | 106 kts | 83° |
| 2026-05-05 18:54 | 50.70532 | -3.04139 | 2618 ft | 105 kts | 84° |
| 2026-05-05 18:55 | 50.70608 | -3.02990 | 2700 ft | 105 kts | 78° |
| 2026-05-05 18:55 | 50.70745 | -3.01870 | 2773 ft | 105 kts | 72° |
| 2026-05-05 18:55 | 50.70924 | -3.00744 | 2817 ft | 108 kts | 72° |
| 2026-05-05 18:55 | 50.71122 | -2.99605 | 2872 ft | 106 kts | 68° |
| 2026-05-05 18:56 | 50.71405 | -2.98517 | 2927 ft | 105 kts | 61° |
| 2026-05-05 18:56 | 50.71759 | -2.97496 | 2947 ft | 109 kts | 56° |
| 2026-05-05 18:56 | 50.72189 | -2.96529 | 2978 ft | 108 kts | 44° |
| 2026-05-05 18:56 | 50.72759 | -2.95763 | 3004 ft | 106 kts | 39° |
| 2026-05-05 18:57 | 50.73298 | -2.94956 | 3030 ft | 107 kts | 42° |
| 2026-05-05 18:57 | 50.73945 | -2.94257 | 2987 ft | 107 kts | 25° |
| 2026-05-05 18:57 | 50.74563 | -2.93692 | 3095 ft | 103 kts | 27° |
| 2026-05-05 18:57 | 50.74989 | -2.92766 | 3092 ft | 110 kts | 74° |
| 2026-05-05 18:58 | 50.75034 | -2.91543 | 3115 ft | 109 kts | 86° |
| 2026-05-05 18:58 | 50.74987 | -2.90311 | 3050 ft | 117 kts | 91° |
| 2026-05-05 18:58 | 50.74921 | -2.89044 | 3069 ft | 115 kts | 93° |
| 2026-05-05 18:58 | 50.74733 | -2.87780 | 3003 ft | 118 kts | 103° |
| 2026-05-05 18:59 | 50.74544 | -2.86569 | 3066 ft | 113 kts | 97° |
| 2026-05-05 18:59 | 50.74417 | -2.85312 | 3017 ft | 117 kts | 94° |
| 2026-05-05 18:59 | 50.74309 | -2.84062 | 3034 ft | 114 kts | 94° |
| 2026-05-05 18:59 | 50.74227 | -2.82813 | 3035 ft | 113 kts | 92° |
| 2026-05-05 19:00 | 50.74153 | -2.81594 | 3002 ft | 112 kts | 92° |
| 2026-05-05 19:00 | 50.74095 | -2.80383 | 2932 ft | 112 kts | 90° |
| 2026-05-05 19:00 | 50.74054 | -2.79169 | 2934 ft | 106 kts | 89° |
| 2026-05-05 19:00 | 50.74016 | -2.77982 | 2868 ft | 109 kts | 89° |
| 2026-05-05 19:01 | 50.73967 | -2.76777 | 2850 ft | 107 kts | 95° |
| 2026-05-05 19:01 | 50.73689 | -2.75632 | 2746 ft | 113 kts | 110° |
| 2026-05-05 19:01 | 50.73508 | -2.74467 | 2758 ft | 106 kts | 95° |
| 2026-05-05 19:01 | 50.73400 | -2.73296 | 2711 ft | 108 kts | 97° |
| 2026-05-05 19:02 | 50.73218 | -2.72110 | 2643 ft | 111 kts | 103° |
| 2026-05-05 19:02 | 50.73010 | -2.70930 | 2601 ft | 110 kts | 101° |
| 2026-05-05 19:02 | 50.72835 | -2.69702 | 2468 ft | 115 kts | 98° |
| 2026-05-05 19:02 | 50.72630 | -2.68504 | 2421 ft | 110 kts | 105° |
| 2026-05-05 19:03 | 50.72331 | -2.67367 | 2254 ft | 115 kts | 109° |
| 2026-05-05 19:03 | 50.72047 | -2.66206 | 2190 ft | 109 kts | 105° |
| 2026-05-05 19:03 | 50.71850 | -2.65088 | 2123 ft | 109 kts | 98° |
| 2026-05-05 19:03 | 50.71708 | -2.63911 | 2035 ft | 108 kts | 96° |
| 2026-05-05 19:04 | 50.71591 | -2.62757 | 2010 ft | 104 kts | 95° |
| 2026-05-05 19:04 | 50.71500 | -2.61638 | 2004 ft | 102 kts | 92° |
| 2026-05-05 19:04 | 50.71442 | -2.60521 | 1992 ft | 102 kts | 88° |
| 2026-05-05 19:04 | 50.71413 | -2.59403 | 2016 ft | 101 kts | 90° |
| 2026-05-05 19:05 | 50.71352 | -2.58277 | 2006 ft | 102 kts | 91° |
| 2026-05-05 19:05 | 50.71307 | -2.57152 | 2023 ft | 100 kts | 88° |
| 2026-05-05 19:05 | 50.71256 | -2.56039 | 2008 ft | 102 kts | 91° |
| 2026-05-05 19:05 | 50.71218 | -2.54916 | 2009 ft | 101 kts | 88° |
| 2026-05-05 19:06 | 50.71198 | -2.53792 | 2004 ft | 102 kts | 87° |
| 2026-05-05 19:06 | 50.71167 | -2.52680 | 2021 ft | 97 kts | 88° |
| 2026-05-05 19:06 | 50.71131 | -2.51605 | 2010 ft | 98 kts | 90° |
| 2026-05-05 19:06 | 50.71068 | -2.50528 | 1999 ft | 98 kts | 92° |
| 2026-05-05 19:07 | 50.70985 | -2.49464 | 1995 ft | 98 kts | 94° |
| 2026-05-05 19:07 | 50.70900 | -2.48380 | 1978 ft | 99 kts | 92° |
| 2026-05-05 19:07 | 50.70831 | -2.47312 | 1984 ft | 98 kts | 92° |
| 2026-05-05 19:07 | 50.70759 | -2.46227 | 1969 ft | 99 kts | 91° |
| 2026-05-05 19:08 | 50.70739 | -2.45662 | 1978 ft | 97 kts | 88° |
| 2026-05-05 19:08 | 50.70726 | -2.45161 | 2024 ft | 92 kts | 88° |
| 2026-05-05 19:08 | 50.70688 | -2.44143 | 2045 ft | 94 kts | 90° |
| 2026-05-05 19:08 | 50.70602 | -2.43101 | 2049 ft | 99 kts | 94° |
| 2026-05-05 19:09 | 50.70471 | -2.42012 | 2037 ft | 102 kts | 99° |
| 2026-05-05 19:09 | 50.70306 | -2.40945 | 2094 ft | 97 kts | 99° |
| 2026-05-05 19:09 | 50.70145 | -2.39884 | 2109 ft | 98 kts | 98° |
| 2026-05-05 19:09 | 50.69917 | -2.38842 | 2126 ft | 100 kts | 109° |
| 2026-05-05 19:10 | 50.69677 | -2.37801 | 2159 ft | 98 kts | 103° |
| 2026-05-05 19:10 | 50.69552 | -2.36737 | 2167 ft | 99 kts | 90° |
| 2026-05-05 19:10 | 50.69503 | -2.35664 | 2216 ft | 96 kts | 91° |
| 2026-05-05 19:10 | 50.69395 | -2.34591 | 2214 ft | 99 kts | 97° |
| 2026-05-05 19:11 | 50.69239 | -2.33516 | 2240 ft | 99 kts | 100° |
| 2026-05-05 19:11 | 50.69098 | -2.32451 | 2248 ft | 100 kts | 98° |
| 2026-05-05 19:11 | 50.68975 | -2.31372 | 2274 ft | 99 kts | 94° |
| 2026-05-05 19:11 | 50.68875 | -2.30281 | 2256 ft | 103 kts | 98° |
| 2026-05-05 19:12 | 50.68714 | -2.29207 | 2267 ft | 103 kts | 106° |
| 2026-05-05 19:12 | 50.68514 | -2.28115 | 2253 ft | 103 kts | 99° |
| 2026-05-05 19:12 | 50.68379 | -2.27003 | 2233 ft | 104 kts | 96° |
| 2026-05-05 19:12 | 50.68283 | -2.25877 | 2226 ft | 104 kts | 92° |
| 2026-05-05 19:13 | 50.68223 | -2.24744 | 2189 ft | 106 kts | 91° |
| 2026-05-05 19:13 | 50.68209 | -2.23592 | 2194 ft | 102 kts | 89° |
| 2026-05-05 19:13 | 50.68153 | -2.22446 | 2154 ft | 104 kts | 90° |
| 2026-05-05 19:13 | 50.68091 | -2.21338 | 2205 ft | 99 kts | 91° |
| 2026-05-05 19:14 | 50.68028 | -2.20225 | 2175 ft | 101 kts | 92° |
| 2026-05-05 19:14 | 50.67955 | -2.19117 | 2105 ft | 101 kts | 92° |
| 2026-05-05 19:14 | 50.67851 | -2.18002 | 2020 ft | 102 kts | 100° |
| 2026-05-05 19:14 | 50.67728 | -2.16895 | 1943 ft | 102 kts | 94° |
| 2026-05-05 19:15 | 50.67661 | -2.15772 | 1873 ft | 101 kts | 91° |
| 2026-05-05 19:15 | 50.67564 | -2.14653 | 1807 ft | 103 kts | 100° |
| 2026-05-05 19:15 | 50.67379 | -2.13549 | 1755 ft | 103 kts | 101° |
| 2026-05-05 19:15 | 50.67209 | -2.12457 | 1730 ft | 103 kts | 102° |
| 2026-05-05 19:16 | 50.67021 | -2.11359 | 1688 ft | 104 kts | 101° |
| 2026-05-05 19:16 | 50.66861 | -2.10275 | 1665 ft | 103 kts | 98° |
| 2026-05-05 19:16 | 50.66775 | -2.09149 | 1625 ft | 104 kts | 87° |
| 2026-05-05 19:16 | 50.66806 | -2.08032 | 1636 ft | 102 kts | 82° |
| 2026-05-05 19:17 | 50.66887 | -2.06912 | 1644 ft | 101 kts | 77° |
| 2026-05-05 19:17 | 50.66988 | -2.05823 | 1646 ft | 102 kts | 78° |
| 2026-05-05 19:17 | 50.67094 | -2.04715 | 1643 ft | 101 kts | 77° |
| 2026-05-05 19:17 | 50.67205 | -2.03621 | 1651 ft | 100 kts | 78° |
| 2026-05-05 19:18 | 50.67304 | -2.02538 | 1687 ft | 97 kts | 78° |
| 2026-05-05 19:18 | 50.67408 | -2.01487 | 1712 ft | 97 kts | 79° |
| 2026-05-05 19:18 | 50.67512 | -2.00403 | 1727 ft | 97 kts | 72° |
| 2026-05-05 19:18 | 50.67607 | -1.99338 | 1738 ft | 99 kts | 81° |
| 2026-05-05 19:19 | 50.67667 | -1.98255 | 1758 ft | 98 kts | 80° |
| 2026-05-05 19:19 | 50.67779 | -1.97180 | 1774 ft | 98 kts | 71° |
| 2026-05-05 19:19 | 50.68092 | -1.96261 | 1775 ft | 97 kts | 40° |
| 2026-05-05 19:19 | 50.68712 | -1.95861 | 1762 ft | 96 kts | 2° |
| 2026-05-05 19:20 | 50.69360 | -1.96062 | 1794 ft | 94 kts | 341° |
| 2026-05-05 19:20 | 50.70005 | -1.96331 | 1779 ft | 97 kts | 346° |
| 2026-05-05 19:20 | 50.70676 | -1.96559 | 1759 ft | 98 kts | 347° |
| 2026-05-05 19:20 | 50.71340 | -1.96738 | 1784 ft | 96 kts | 349° |
| 2026-05-05 19:21 | 50.71988 | -1.96977 | 1810 ft | 94 kts | 342° |
| 2026-05-05 19:21 | 50.72607 | -1.97276 | 1844 ft | 94 kts | 341° |
| 2026-05-05 19:21 | 50.73223 | -1.97645 | 1870 ft | 94 kts | 335° |
| 2026-05-05 19:21 | 50.73803 | -1.98100 | 1905 ft | 92 kts | 334° |
| 2026-05-05 19:22 | 50.74399 | -1.98454 | 1898 ft | 94 kts | 345° |
| 2026-05-05 19:22 | 50.75033 | -1.98344 | 1895 ft | 94 kts | 23° |
| 2026-05-05 19:22 | 50.75505 | -1.97585 | 1783 ft | 104 kts | 53° |
| 2026-05-05 19:22 | 50.75827 | -1.96517 | 1650 ft | 108 kts | 67° |
| 2026-05-05 19:23 | 50.76067 | -1.95373 | 1477 ft | 112 kts | 71° |
| 2026-05-05 19:23 | 50.76292 | -1.94169 | 1250 ft | 116 kts | 70° |
| 2026-05-05 19:23 | 50.76508 | -1.92923 | 1016 ft | 113 kts | 73° |
| 2026-05-05 19:23 | 50.76703 | -1.91746 | 837 ft | 108 kts | 70° |
| 2026-05-05 19:24 | 50.76926 | -1.90636 | 725 ft | 103 kts | 69° |
| 2026-05-05 19:24 | 50.77107 | -1.89562 | 627 ft | 96 kts | 71° |
| 2026-05-05 19:24 | 50.77277 | -1.88565 | 516 ft | 90 kts | 73° |
| 2026-05-05 19:24 | 50.77434 | -1.87621 | 406 ft | 87 kts | 69° |
| 2026-05-05 19:25 | 50.77594 | -1.86714 | 279 ft | 86 kts | 71° |
| 2026-05-05 19:25 | 50.77749 | -1.85795 | 177 ft | 87 kts | 71° |
| 2026-05-05 19:25 | 50.77895 | -1.84931 | 103 ft | 70 kts | 72° |
| 2026-05-05 19:25 | 50.78005 | -1.84288 | 50 ft | 55 kts | 71° |
| 2026-05-05 19:26 | 50.78095 | -1.83731 | 37 ft | 48 kts | 71° |
| 2026-05-05 19:26 | 50.78149 | -1.83452 | 35 ft | 1 kts | 73° |
| 2026-05-05 19:26 | 50.78191 | -1.83207 | 39 ft | 36 kts | 76° |
| 2026-05-05 19:26 | 50.78185 | -1.83153 | 39 ft | 14 kts | 16° |
| 2026-05-05 19:27 | 50.78271 | -1.83133 | 39 ft | 14 kts | 301° |
| 2026-05-05 19:27 | 50.78309 | -1.83255 | 38 ft | 0 kts | 292° |
| 2026-05-05 19:27 | 50.78319 | -1.83292 | 38 ft | 9 kts | 291° |
| 2026-05-05 19:27 | 50.78359 | -1.83343 | 38 ft | 6 kts | 72° |
| 2026-05-05 19:28 | 50.78365 | -1.83254 | 37 ft | 6 kts | 81° |
| 2026-05-05 19:28 | 50.78373 | -1.83192 | 37 ft | 6 kts | 71° |
| 2026-05-05 19:28 | 50.78390 | -1.83156 | 37 ft | 1 kts | 7° |
| 2026-05-05 19:28 | 50.78402 | -1.83161 | 37 ft | 2 kts | 330° |
| 2026-05-05 19:29 | 50.78424 | -1.83185 | 37 ft | 4 kts | 4° |
| 2026-05-05 19:29 | 50.78445 | -1.83139 | 37 ft | 6 kts | 65° |
| 2026-05-05 19:29 | 50.78447 | -1.83119 | 37 ft | 0 kts | 233° |